Impacts TAF Board INFO
FOR SITUATIONAL AWARENESS. NOT TO BE USED FOR FLIGHT PLANNING PURPOSES.
IDs:

KCVG - Cincinnati Intl, KY, US

Issued at 2101 UTC 17 Dec 2017
Updated at 2128 UTC 17 Dec 2017
Potential Impact None Slight Moderate High
Time<<18/22Z 18/23Z 19/00Z 19/01Z 19/02Z 19/03Z 19/04Z 19/05Z 19/06Z 19/07Z 19/08Z 19/09Z 19/10Z
Type PRVL PRVL
VIS >6 >6
CIG 22 22
Cover OVC OVC
FltCat MVFR MVFR
WX -- --
WDir 230 230
WSpd 7 7
WGst -- --

Raw TAF
KCVG 172101Z 1721/1824 20005KT P6SM OVC050
  FM180200 19004KT P6SM OVC025
  FM180700 21004KT P6SM -DZ OVC011
  FM181000 22005KT P6SM -DZ OVC008
  FM181500 22005KT P6SM -DZ OVC012
  FM182000 23007KT P6SM OVC022


METAR Board
Radar Display
Forecast Discussion

FOR SITUATIONAL AWARENESS. NOT TO BE USED FOR FLIGHT PLANNING PURPOSES.